sensor_id;sensor_type;location;lat;lon;timestamp;temperature;humidity
75838;SHT30;64480;52.040;113.502;2023-02-15T00:00:22;-16.18;62.66
75838;SHT30;64480;52.040;113.502;2023-02-15T00:03:31;-16.03;62.92
75838;SHT30;64480;52.040;113.502;2023-02-15T00:06:54;-15.99;63.17
75838;SHT30;64480;52.040;113.502;2023-02-15T00:10:15;-15.78;63.37
75838;SHT30;64480;52.040;113.502;2023-02-15T00:13:33;-15.33;63.94
75838;SHT30;64480;52.040;113.502;2023-02-15T00:16:43;-15.03;62.18
75838;SHT30;64480;52.040;113.502;2023-02-15T00:19:53;-14.87;60.65
75838;SHT30;64480;52.040;113.502;2023-02-15T00:22:59;-14.64;60.04
75838;SHT30;64480;52.040;113.502;2023-02-15T00:26:15;-14.47;58.24
75838;SHT30;64480;52.040;113.502;2023-02-15T00:29:35;-14.50;58.49
75838;SHT30;64480;52.040;113.502;2023-02-15T00:32:57;-14.44;57.71
75838;SHT30;64480;52.040;113.502;2023-02-15T00:36:15;-14.42;58.20
75838;SHT30;64480;52.040;113.502;2023-02-15T00:39:19;-14.49;58.33
75838;SHT30;64480;52.040;113.502;2023-02-15T00:42:25;-14.53;58.25
75838;SHT30;64480;52.040;113.502;2023-02-15T00:45:37;-14.49;58.87
75838;SHT30;64480;52.040;113.502;2023-02-15T00:48:54;-14.50;58.73
75838;SHT30;64480;52.040;113.502;2023-02-15T00:52:13;-15.15;54.07
75838;SHT30;64480;52.040;113.502;2023-02-15T00:55:23;-15.66;54.86
75838;SHT30;64480;52.040;113.502;2023-02-15T00:58:44;-15.97;57.12
75838;SHT30;64480;52.040;113.502;2023-02-15T01:02:02;-15.99;58.10
75838;SHT30;64480;52.040;113.502;2023-02-15T01:05:21;-15.79;58.93
75838;SHT30;64480;52.040;113.502;2023-02-15T01:08:39;-15.61;58.58
75838;SHT30;64480;52.040;113.502;2023-02-15T01:11:57;-15.27;57.78
75838;SHT30;64480;52.040;113.502;2023-02-15T01:15:23;-14.98;57.20
75838;SHT30;64480;52.040;113.502;2023-02-15T01:18:43;-14.77;56.74
75838;SHT30;64480;52.040;113.502;2023-02-15T01:21:59;-14.65;56.64
75838;SHT30;64480;52.040;113.502;2023-02-15T01:25:20;-14.63;55.97
75838;SHT30;64480;52.040;113.502;2023-02-15T01:28:48;-14.63;55.46
75838;SHT30;64480;52.040;113.502;2023-02-15T01:31:59;-14.56;55.72
75838;SHT30;64480;52.040;113.502;2023-02-15T01:35:16;-14.25;55.92
75838;SHT30;64480;52.040;113.502;2023-02-15T01:38:32;-14.02;55.08
75838;SHT30;64480;52.040;113.502;2023-02-15T01:41:51;-13.89;54.57
75838;SHT30;64480;52.040;113.502;2023-02-15T01:45:43;-13.81;54.66
75838;SHT30;64480;52.040;113.502;2023-02-15T01:49:22;-13.94;54.01
75838;SHT30;64480;52.040;113.502;2023-02-15T01:52:37;-13.92;54.73
75838;SHT30;64480;52.040;113.502;2023-02-15T01:55:53;-13.70;55.44
75838;SHT30;64480;52.040;113.502;2023-02-15T01:59:08;-13.53;55.10
75838;SHT30;64480;52.040;113.502;2023-02-15T02:02:27;-13.35;54.44
75838;SHT30;64480;52.040;113.502;2023-02-15T02:05:46;-13.30;54.24
75838;SHT30;64480;52.040;113.502;2023-02-15T02:09:09;-13.19;54.12
75838;SHT30;64480;52.040;113.502;2023-02-15T02:12:16;-12.98;54.31
75838;SHT30;64480;52.040;113.502;2023-02-15T02:15:57;-12.91;54.13
75838;SHT30;64480;52.040;113.502;2023-02-15T02:30:48;-12.57;54.38
75838;SHT30;64480;52.040;113.502;2023-02-15T02:38:00;-12.50;54.25
75838;SHT30;64480;52.040;113.502;2023-02-15T02:45:55;-12.45;55.28
75838;SHT30;64480;52.040;113.502;2023-02-15T02:49:36;-12.45;55.68
75838;SHT30;64480;52.040;113.502;2023-02-15T02:52:51;-12.52;56.18
75838;SHT30;64480;52.040;113.502;2023-02-15T02:56:20;-12.36;56.14
75838;SHT30;64480;52.040;113.502;2023-02-15T02:59:34;-12.28;55.98
75838;SHT30;64480;52.040;113.502;2023-02-15T03:03:02;-12.02;56.00
75838;SHT30;64480;52.040;113.502;2023-02-15T03:10:08;-11.77;55.09
75838;SHT30;64480;52.040;113.502;2023-02-15T03:13:33;-11.77;54.82
75838;SHT30;64480;52.040;113.502;2023-02-15T03:16:55;-11.69;55.35
75838;SHT30;64480;52.040;113.502;2023-02-15T03:20:21;-11.55;55.42
75838;SHT30;64480;52.040;113.502;2023-02-15T03:23:45;-11.45;55.00
75838;SHT30;64480;52.040;113.502;2023-02-15T03:27:16;-11.36;54.53
75838;SHT30;64480;52.040;113.502;2023-02-15T03:30:39;-11.35;54.33
75838;SHT30;64480;52.040;113.502;2023-02-15T03:34:26;-11.31;54.59
75838;SHT30;64480;52.040;113.502;2023-02-15T03:37:53;-11.27;54.62
75838;SHT30;64480;52.040;113.502;2023-02-15T03:41:14;-11.14;54.61
75838;SHT30;64480;52.040;113.502;2023-02-15T03:45:05;-11.08;54.05
75838;SHT30;64480;52.040;113.502;2023-02-15T03:48:38;-10.99;54.10
75838;SHT30;64480;52.040;113.502;2023-02-15T03:52:06;-10.82;53.98
75838;SHT30;64480;52.040;113.502;2023-02-15T03:55:53;-10.62;52.99
75838;SHT30;64480;52.040;113.502;2023-02-15T03:59:24;-10.41;52.72
75838;SHT30;64480;52.040;113.502;2023-02-15T04:06:51;-10.05;51.82
75838;SHT30;64480;52.040;113.502;2023-02-15T04:10:09;-10.02;51.65
75838;SHT30;64480;52.040;113.502;2023-02-15T04:13:48;-9.97;51.73
75838;SHT30;64480;52.040;113.502;2023-02-15T04:17:14;-9.76;51.55
75838;SHT30;64480;52.040;113.502;2023-02-15T04:21:07;-9.66;51.10
75838;SHT30;64480;52.040;113.502;2023-02-15T04:24:46;-9.59;51.05
75838;SHT30;64480;52.040;113.502;2023-02-15T04:28:46;-9.51;50.89
75838;SHT30;64480;52.040;113.502;2023-02-15T04:32:00;-9.30;50.65
75838;SHT30;64480;52.040;113.502;2023-02-15T04:35:19;-9.20;50.24
75838;SHT30;64480;52.040;113.502;2023-02-15T04:38:37;-8.99;50.14
75838;SHT30;64480;52.040;113.502;2023-02-15T04:42:08;-8.82;49.61
75838;SHT30;64480;52.040;113.502;2023-02-15T04:45:33;-8.69;49.74
75838;SHT30;64480;52.040;113.502;2023-02-15T04:49:02;-8.40;49.11
75838;SHT30;64480;52.040;113.502;2023-02-15T04:52:20;-8.23;48.72
75838;SHT30;64480;52.040;113.502;2023-02-15T04:55:40;-8.06;48.68
75838;SHT30;64480;52.040;113.502;2023-02-15T04:58:58;-7.94;48.14
75838;SHT30;64480;52.040;113.502;2023-02-15T05:02:16;-7.85;47.79
75838;SHT30;64480;52.040;113.502;2023-02-15T05:05:34;-7.68;47.72
75838;SHT30;64480;52.040;113.502;2023-02-15T05:08:53;-7.44;47.32
75838;SHT30;64480;52.040;113.502;2023-02-15T05:12:02;-7.47;46.66
75838;SHT30;64480;52.040;113.502;2023-02-15T05:15:25;-7.30;47.23
75838;SHT30;64480;52.040;113.502;2023-02-15T05:18:42;-7.19;46.60
75838;SHT30;64480;52.040;113.502;2023-02-15T05:21:53;-6.96;46.38
75838;SHT30;64480;52.040;113.502;2023-02-15T05:25:02;-6.80;46.21
75838;SHT30;64480;52.040;113.502;2023-02-15T05:29:03;-6.78;45.81
75838;SHT30;64480;52.040;113.502;2023-02-15T05:32:20;-6.73;45.69
75838;SHT30;64480;52.040;113.502;2023-02-15T05:35:31;-6.53;45.16
75838;SHT30;64480;52.040;113.502;2023-02-15T05:39:20;-6.33;44.97
75838;SHT30;64480;52.040;113.502;2023-02-15T05:43:07;-6.16;43.80
75838;SHT30;64480;52.040;113.502;2023-02-15T05:46:30;-5.94;44.20
75838;SHT30;64480;52.040;113.502;2023-02-15T05:54:01;-5.70;42.58
75838;SHT30;64480;52.040;113.502;2023-02-15T05:57:24;-5.57;42.91
75838;SHT30;64480;52.040;113.502;2023-02-15T06:00:56;-5.53;42.77
75838;SHT30;64480;52.040;113.502;2023-02-15T06:04:18;-5.40;42.69
75838;SHT30;64480;52.040;113.502;2023-02-15T06:07:35;-5.35;42.28
75838;SHT30;64480;52.040;113.502;2023-02-15T06:10:59;-5.18;41.98
75838;SHT30;64480;52.040;113.502;2023-02-15T06:14:08;-5.22;40.77
75838;SHT30;64480;52.040;113.502;2023-02-15T06:17:32;-5.15;41.10
75838;SHT30;64480;52.040;113.502;2023-02-15T06:20:52;-5.05;40.96
75838;SHT30;64480;52.040;113.502;2023-02-15T06:24:12;-5.11;40.19
75838;SHT30;64480;52.040;113.502;2023-02-15T06:27:42;-4.97;41.23
75838;SHT30;64480;52.040;113.502;2023-02-15T06:31:01;-5.01;40.60
75838;SHT30;64480;52.040;113.502;2023-02-15T06:34:07;-4.98;40.33
75838;SHT30;64480;52.040;113.502;2023-02-15T06:37:12;-4.85;40.96
75838;SHT30;64480;52.040;113.502;2023-02-15T06:40:17;-4.67;40.89
75838;SHT30;64480;52.040;113.502;2023-02-15T06:43:41;-4.54;40.20
75838;SHT30;64480;52.040;113.502;2023-02-15T06:46:59;-4.43;39.46
75838;SHT30;64480;52.040;113.502;2023-02-15T06:50:09;-4.54;40.65
75838;SHT30;64480;52.040;113.502;2023-02-15T06:53:16;-4.53;41.16
75838;SHT30;64480;52.040;113.502;2023-02-15T06:56:21;-4.53;40.61
75838;SHT30;64480;52.040;113.502;2023-02-15T06:59:27;-4.42;40.80
75838;SHT30;64480;52.040;113.502;2023-02-15T07:02:45;-4.35;40.45
75838;SHT30;64480;52.040;113.502;2023-02-15T07:06:19;-4.37;40.21
75838;SHT30;64480;52.040;113.502;2023-02-15T07:09:37;-4.29;40.06
75838;SHT30;64480;52.040;113.502;2023-02-15T07:12:56;-4.28;40.32
75838;SHT30;64480;52.040;113.502;2023-02-15T07:16:02;-4.19;40.13
75838;SHT30;64480;52.040;113.502;2023-02-15T07:19:19;-4.22;39.63
75838;SHT30;64480;52.040;113.502;2023-02-15T07:22:39;-4.22;40.24
75838;SHT30;64480;52.040;113.502;2023-02-15T07:25:59;-4.18;39.74
75838;SHT30;64480;52.040;113.502;2023-02-15T07:29:17;-4.12;40.05
75838;SHT30;64480;52.040;113.502;2023-02-15T07:32:31;-4.02;39.86
75838;SHT30;64480;52.040;113.502;2023-02-15T07:36:02;-3.98;39.47
75838;SHT30;64480;52.040;113.502;2023-02-15T07:39:49;-3.80;39.19
75838;SHT30;64480;52.040;113.502;2023-02-15T07:43:14;-3.59;38.60
75838;SHT30;64480;52.040;113.502;2023-02-15T07:47:17;-3.55;38.60
75838;SHT30;64480;52.040;113.502;2023-02-15T07:50:49;-3.60;38.52
75838;SHT30;64480;52.040;113.502;2023-02-15T07:54:21;-3.53;39.10
75838;SHT30;64480;52.040;113.502;2023-02-15T07:57:52;-3.24;38.31
75838;SHT30;64480;52.040;113.502;2023-02-15T08:01:36;-3.08;38.06
75838;SHT30;64480;52.040;113.502;2023-02-15T08:04:56;-3.07;37.97
75838;SHT30;64480;52.040;113.502;2023-02-15T08:08:13;-3.24;37.57
75838;SHT30;64480;52.040;113.502;2023-02-15T08:11:50;-3.46;37.96
75838;SHT30;64480;52.040;113.502;2023-02-15T08:15:12;-3.53;38.66
75838;SHT30;64480;52.040;113.502;2023-02-15T08:18:35;-3.55;38.57
75838;SHT30;64480;52.040;113.502;2023-02-15T08:22:06;-3.73;38.52
75838;SHT30;64480;52.040;113.502;2023-02-15T08:25:30;-3.87;39.06
75838;SHT30;64480;52.040;113.502;2023-02-15T08:29:01;-4.07;39.69
75838;SHT30;64480;52.040;113.502;2023-02-15T08:32:28;-4.28;40.36
75838;SHT30;64480;52.040;113.502;2023-02-15T08:36:07;-4.46;40.83
75838;SHT30;64480;52.040;113.502;2023-02-15T08:39:34;-4.56;41.48
75838;SHT30;64480;52.040;113.502;2023-02-15T08:43:35;-4.67;41.99
75838;SHT30;64480;52.040;113.502;2023-02-15T08:46:58;-4.64;42.51
75838;SHT30;64480;52.040;113.502;2023-02-15T08:51:20;-4.59;42.12
75838;SHT30;64480;52.040;113.502;2023-02-15T08:54:41;-4.52;41.63
75838;SHT30;64480;52.040;113.502;2023-02-15T08:58:01;-4.46;41.80
75838;SHT30;64480;52.040;113.502;2023-02-15T09:01:11;-4.50;41.66
75838;SHT30;64480;52.040;113.502;2023-02-15T09:04:34;-4.50;41.66
75838;SHT30;64480;52.040;113.502;2023-02-15T09:07:55;-4.48;41.50
75838;SHT30;64480;52.040;113.502;2023-02-15T09:11:22;-4.53;41.44
75838;SHT30;64480;52.040;113.502;2023-02-15T09:14:40;-4.52;41.94
75838;SHT30;64480;52.040;113.502;2023-02-15T09:17:57;-4.54;41.83
75838;SHT30;64480;52.040;113.502;2023-02-15T09:21:12;-4.59;42.54
75838;SHT30;64480;52.040;113.502;2023-02-15T09:24:32;-4.60;42.28
75838;SHT30;64480;52.040;113.502;2023-02-15T09:27:51;-4.60;42.14
75838;SHT30;64480;52.040;113.502;2023-02-15T09:31:18;-4.70;42.48
75838;SHT30;64480;52.040;113.502;2023-02-15T09:34:36;-4.74;42.64
75838;SHT30;64480;52.040;113.502;2023-02-15T09:37:44;-4.80;42.71
75838;SHT30;64480;52.040;113.502;2023-02-15T09:49:04;-4.97;43.52
75838;SHT30;64480;52.040;113.502;2023-02-15T09:53:23;-5.16;45.62
75838;SHT30;64480;52.040;113.502;2023-02-15T09:57:00;-5.35;46.98
75838;SHT30;64480;52.040;113.502;2023-02-15T10:07:56;-5.92;49.09
75838;SHT30;64480;52.040;113.502;2023-02-15T10:15:43;-6.33;49.99
75838;SHT30;64480;52.040;113.502;2023-02-15T10:23:19;-6.60;50.31
75838;SHT30;64480;52.040;113.502;2023-02-15T10:30:32;-6.85;51.22
75838;SHT30;64480;52.040;113.502;2023-02-15T10:42:57;-7.34;51.49
75838;SHT30;64480;52.040;113.502;2023-02-15T10:47:41;-7.51;52.16
75838;SHT30;64480;52.040;113.502;2023-02-15T10:51:10;-7.65;52.00
75838;SHT30;64480;52.040;113.502;2023-02-15T10:58:31;-7.79;52.24
75838;SHT30;64480;52.040;113.502;2023-02-15T11:06:09;-7.95;52.80
75838;SHT30;64480;52.040;113.502;2023-02-15T11:09:38;-8.05;53.07
75838;SHT30;64480;52.040;113.502;2023-02-15T11:13:10;-8.13;53.30
75838;SHT30;64480;52.040;113.502;2023-02-15T11:16:40;-8.22;53.36
75838;SHT30;64480;52.040;113.502;2023-02-15T11:23:40;-8.36;53.72
75838;SHT30;64480;52.040;113.502;2023-02-15T11:26:53;-8.42;53.66
75838;SHT30;64480;52.040;113.502;2023-02-15T11:30:27;-8.59;54.27
75838;SHT30;64480;52.040;113.502;2023-02-15T11:33:56;-8.64;54.48
75838;SHT30;64480;52.040;113.502;2023-02-15T11:37:18;-8.69;54.86
75838;SHT30;64480;52.040;113.502;2023-02-15T11:40:52;-8.85;54.86
75838;SHT30;64480;52.040;113.502;2023-02-15T11:44:26;-8.95;55.23
75838;SHT30;64480;52.040;113.502;2023-02-15T11:47:47;-8.99;55.56
75838;SHT30;64480;52.040;113.502;2023-02-15T11:50:54;-9.12;55.83
75838;SHT30;64480;52.040;113.502;2023-02-15T11:54:04;-9.22;56.21
75838;SHT30;64480;52.040;113.502;2023-02-15T12:01:42;-9.38;56.47
75838;SHT30;64480;52.040;113.502;2023-02-15T12:05:07;-9.42;56.84
75838;SHT30;64480;52.040;113.502;2023-02-15T12:08:21;-9.52;57.00
75838;SHT30;64480;52.040;113.502;2023-02-15T12:11:41;-9.54;57.24
75838;SHT30;64480;52.040;113.502;2023-02-15T12:15:07;-9.59;57.36
75838;SHT30;64480;52.040;113.502;2023-02-15T12:18:40;-9.66;57.50
75838;SHT30;64480;52.040;113.502;2023-02-15T12:22:02;-9.78;57.72
75838;SHT30;64480;52.040;113.502;2023-02-15T12:25:40;-9.88;57.86
75838;SHT30;64480;52.040;113.502;2023-02-15T12:28:58;-9.96;57.96
75838;SHT30;64480;52.040;113.502;2023-02-15T12:32:08;-9.96;58.36
75838;SHT30;64480;52.040;113.502;2023-02-15T12:35:36;-9.99;58.30
75838;SHT30;64480;52.040;113.502;2023-02-15T12:42:42;-10.12;58.34
75838;SHT30;64480;52.040;113.502;2023-02-15T12:45:50;-10.14;58.41
75838;SHT30;64480;52.040;113.502;2023-02-15T12:49:20;-10.17;58.44
75838;SHT30;64480;52.040;113.502;2023-02-15T12:52:26;-10.20;58.52
75838;SHT30;64480;52.040;113.502;2023-02-15T12:55:36;-10.16;58.45
75838;SHT30;64480;52.040;113.502;2023-02-15T12:59:05;-10.13;58.14
75838;SHT30;64480;52.040;113.502;2023-02-15T13:05:45;-10.24;58.15
75838;SHT30;64480;52.040;113.502;2023-02-15T13:09:05;-10.41;57.92
75838;SHT30;64480;52.040;113.502;2023-02-15T13:12:25;-10.52;58.30
75838;SHT30;64480;52.040;113.502;2023-02-15T13:15:46;-10.62;58.23
75838;SHT30;64480;52.040;113.502;2023-02-15T13:18:55;-10.73;58.43
75838;SHT30;64480;52.040;113.502;2023-02-15T13:22:13;-10.80;59.29
75838;SHT30;64480;52.040;113.502;2023-02-15T13:25:44;-10.84;59.26
75838;SHT30;64480;52.040;113.502;2023-02-15T13:29:35;-10.93;59.85
75838;SHT30;64480;52.040;113.502;2023-02-15T13:32:58;-10.91;59.95
75838;SHT30;64480;52.040;113.502;2023-02-15T13:36:29;-10.87;59.51
75838;SHT30;64480;52.040;113.502;2023-02-15T13:39:49;-11.07;58.73
75838;SHT30;64480;52.040;113.502;2023-02-15T13:50:36;-11.36;59.57
75838;SHT30;64480;52.040;113.502;2023-02-15T13:54:15;-11.41;59.71
75838;SHT30;64480;52.040;113.502;2023-02-15T13:57:47;-11.48;59.74
75838;SHT30;64480;52.040;113.502;2023-02-15T14:01:24;-11.52;59.88
75838;SHT30;64480;52.040;113.502;2023-02-15T14:04:52;-11.58;59.94
75838;SHT30;64480;52.040;113.502;2023-02-15T14:18:39;-11.59;59.56
75838;SHT30;64480;52.040;113.502;2023-02-15T14:22:13;-11.62;59.58
75838;SHT30;64480;52.040;113.502;2023-02-15T14:25:26;-11.69;59.48
75838;SHT30;64480;52.040;113.502;2023-02-15T14:31:50;-11.97;59.35
75838;SHT30;64480;52.040;113.502;2023-02-15T14:35:24;-12.16;59.55
75838;SHT30;64480;52.040;113.502;2023-02-15T14:38:51;-12.16;59.73
75838;SHT30;64480;52.040;113.502;2023-02-15T14:45:35;-12.14;59.84
75838;SHT30;64480;52.040;113.502;2023-02-15T14:49:12;-12.21;60.00
75838;SHT30;64480;52.040;113.502;2023-02-15T14:52:17;-12.31;60.38
75838;SHT30;64480;52.040;113.502;2023-02-15T14:55:36;-12.16;60.27
75838;SHT30;64480;52.040;113.502;2023-02-15T15:05:35;-12.22;59.79
75838;SHT30;64480;52.040;113.502;2023-02-15T15:09:25;-12.25;59.90
75838;SHT30;64480;52.040;113.502;2023-02-15T15:15:46;-12.10;59.52
75838;SHT30;64480;52.040;113.502;2023-02-15T15:18:49;-12.25;59.57
75838;SHT30;64480;52.040;113.502;2023-02-15T15:22:03;-12.18;60.44
75838;SHT30;64480;52.040;113.502;2023-02-15T15:32:03;-11.90;59.52
75838;SHT30;64480;52.040;113.502;2023-02-15T15:39:01;-11.76;59.25
75838;SHT30;64480;52.040;113.502;2023-02-15T15:49:17;-12.02;58.97
75838;SHT30;64480;52.040;113.502;2023-02-15T15:52:27;-12.14;59.24
75838;SHT30;64480;52.040;113.502;2023-02-15T15:55:47;-12.17;59.26
75838;SHT30;64480;52.040;113.502;2023-02-15T15:58:58;-12.28;59.39
75838;SHT30;64480;52.040;113.502;2023-02-15T16:02:17;-12.36;59.75
75838;SHT30;64480;52.040;113.502;2023-02-15T16:05:24;-12.42;60.18
75838;SHT30;64480;52.040;113.502;2023-02-15T16:08:33;-12.49;60.08
75838;SHT30;64480;52.040;113.502;2023-02-15T16:12:00;-12.32;62.22
75838;SHT30;64480;52.040;113.502;2023-02-15T16:15:42;-12.18;61.74
75838;SHT30;64480;52.040;113.502;2023-02-15T16:18:49;-12.11;60.75
75838;SHT30;64480;52.040;113.502;2023-02-15T16:22:20;-12.18;60.22
75838;SHT30;64480;52.040;113.502;2023-02-15T16:25:54;-12.11;60.31
75838;SHT30;64480;52.040;113.502;2023-02-15T16:29:26;-12.00;60.68
75838;SHT30;64480;52.040;113.502;2023-02-15T16:32:33;-11.90;60.55
75838;SHT30;64480;52.040;113.502;2023-02-15T16:35:59;-11.73;60.40
75838;SHT30;64480;52.040;113.502;2023-02-15T16:39:12;-11.65;59.97
75838;SHT30;64480;52.040;113.502;2023-02-15T16:42:24;-11.62;59.23
75838;SHT30;64480;52.040;113.502;2023-02-15T16:45:37;-11.73;58.32
75838;SHT30;64480;52.040;113.502;2023-02-15T16:48:46;-11.80;58.02
75838;SHT30;64480;52.040;113.502;2023-02-15T16:51:57;-11.91;57.95
75838;SHT30;64480;52.040;113.502;2023-02-15T16:55:21;-12.14;57.62
75838;SHT30;64480;52.040;113.502;2023-02-15T16:58:43;-12.34;57.63
75838;SHT30;64480;52.040;113.502;2023-02-15T17:01:49;-12.45;57.76
75838;SHT30;64480;52.040;113.502;2023-02-15T17:05:14;-12.59;57.62
75838;SHT30;64480;52.040;113.502;2023-02-15T17:08:43;-12.65;57.46
75838;SHT30;64480;52.040;113.502;2023-02-15T17:11:49;-12.66;58.27
75838;SHT30;64480;52.040;113.502;2023-02-15T17:14:54;-12.70;58.13
75838;SHT30;64480;52.040;113.502;2023-02-15T17:18:20;-12.79;57.85
75838;SHT30;64480;52.040;113.502;2023-02-15T17:22:01;-12.79;58.66
75838;SHT30;64480;52.040;113.502;2023-02-15T17:25:25;-12.76;58.19
75838;SHT30;64480;52.040;113.502;2023-02-15T17:28:31;-12.88;56.83
75838;SHT30;64480;52.040;113.502;2023-02-15T17:31:36;-12.77;58.46
75838;SHT30;64480;52.040;113.502;2023-02-15T17:38:17;-12.85;57.17
75838;SHT30;64480;52.040;113.502;2023-02-15T17:41:26;-12.98;57.25
75838;SHT30;64480;52.040;113.502;2023-02-15T17:44:33;-13.01;57.50
75838;SHT30;64480;52.040;113.502;2023-02-15T17:47:38;-13.07;57.29
75838;SHT30;64480;52.040;113.502;2023-02-15T17:50:45;-13.08;57.32
75838;SHT30;64480;52.040;113.502;2023-02-15T17:53:49;-13.18;56.78
75838;SHT30;64480;52.040;113.502;2023-02-15T17:57:13;-13.15;58.35
75838;SHT30;64480;52.040;113.502;2023-02-15T18:00:18;-13.05;58.38
75838;SHT30;64480;52.040;113.502;2023-02-15T18:03:45;-12.95;59.37
75838;SHT30;64480;52.040;113.502;2023-02-15T18:07:18;-12.87;58.04
75838;SHT30;64480;52.040;113.502;2023-02-15T18:10:44;-12.90;58.62
75838;SHT30;64480;52.040;113.502;2023-02-15T18:14:10;-12.84;58.99
75838;SHT30;64480;52.040;113.502;2023-02-15T18:17:17;-12.79;58.67
75838;SHT30;64480;52.040;113.502;2023-02-15T18:20:35;-12.90;57.02
75838;SHT30;64480;52.040;113.502;2023-02-15T18:23:40;-12.90;57.69
75838;SHT30;64480;52.040;113.502;2023-02-15T18:26:47;-12.93;56.61
75838;SHT30;64480;52.040;113.502;2023-02-15T18:29:55;-12.74;57.16
75838;SHT30;64480;52.040;113.502;2023-02-15T18:33:05;-12.74;56.59
75838;SHT30;64480;52.040;113.502;2023-02-15T18:36:28;-12.74;57.26
75838;SHT30;64480;52.040;113.502;2023-02-15T18:39:45;-12.74;57.13
75838;SHT30;64480;52.040;113.502;2023-02-15T18:42:51;-12.76;56.65
75838;SHT30;64480;52.040;113.502;2023-02-15T18:45:55;-12.73;56.51
75838;SHT30;64480;52.040;113.502;2023-02-15T18:49:03;-12.91;55.24
75838;SHT30;64480;52.040;113.502;2023-02-15T18:52:17;-13.02;55.72
75838;SHT30;64480;52.040;113.502;2023-02-15T18:55:27;-13.25;55.71
75838;SHT30;64480;52.040;113.502;2023-02-15T18:58:34;-13.42;55.94
75838;SHT30;64480;52.040;113.502;2023-02-15T19:01:43;-13.57;55.91
75838;SHT30;64480;52.040;113.502;2023-02-15T19:04:46;-13.78;55.79
75838;SHT30;64480;52.040;113.502;2023-02-15T19:07:50;-13.74;57.90
75838;SHT30;64480;52.040;113.502;2023-02-15T19:10:56;-13.84;56.65
75838;SHT30;64480;52.040;113.502;2023-02-15T19:14:01;-14.08;56.27
75838;SHT30;64480;52.040;113.502;2023-02-15T19:17:20;-14.05;57.80
75838;SHT30;64480;52.040;113.502;2023-02-15T19:20:32;-14.04;57.66
75838;SHT30;64480;52.040;113.502;2023-02-15T19:23:36;-14.06;58.90
75838;SHT30;64480;52.040;113.502;2023-02-15T19:26:41;-14.08;58.68
75838;SHT30;64480;52.040;113.502;2023-02-15T19:29:47;-14.21;57.54
75838;SHT30;64480;52.040;113.502;2023-02-15T19:32:53;-14.34;57.13
75838;SHT30;64480;52.040;113.502;2023-02-15T19:35:57;-14.54;56.75
75838;SHT30;64480;52.040;113.502;2023-02-15T19:39:01;-14.72;56.67
75838;SHT30;64480;52.040;113.502;2023-02-15T19:42:05;-14.81;57.85
75838;SHT30;64480;52.040;113.502;2023-02-15T19:45:16;-14.87;57.90
75838;SHT30;64480;52.040;113.502;2023-02-15T19:48:22;-14.81;58.67
75838;SHT30;64480;52.040;113.502;2023-02-15T19:51:26;-14.95;57.30
75838;SHT30;64480;52.040;113.502;2023-02-15T19:54:33;-15.05;57.63
75838;SHT30;64480;52.040;113.502;2023-02-15T19:57:38;-14.72;60.73
75838;SHT30;64480;52.040;113.502;2023-02-15T20:00:41;-14.54;59.88
75838;SHT30;64480;52.040;113.502;2023-02-15T20:03:45;-14.26;60.34
75838;SHT30;64480;52.040;113.502;2023-02-15T20:06:53;-14.08;60.45
75838;SHT30;64480;52.040;113.502;2023-02-15T20:09:58;-13.96;58.66
75838;SHT30;64480;52.040;113.502;2023-02-15T20:13:17;-13.92;59.20
75838;SHT30;64480;52.040;113.502;2023-02-15T20:16:23;-14.01;58.25
75838;SHT30;64480;52.040;113.502;2023-02-15T20:19:29;-13.96;58.50
75838;SHT30;64480;52.040;113.502;2023-02-15T20:22:33;-14.18;55.67
75838;SHT30;64480;52.040;113.502;2023-02-15T20:25:37;-14.37;55.97
75838;SHT30;64480;52.040;113.502;2023-02-15T20:28:40;-14.42;56.91
75838;SHT30;64480;52.040;113.502;2023-02-15T20:31:49;-14.53;56.34
75838;SHT30;64480;52.040;113.502;2023-02-15T20:34:57;-14.59;56.23
75838;SHT30;64480;52.040;113.502;2023-02-15T20:38:02;-14.60;56.50
75838;SHT30;64480;52.040;113.502;2023-02-15T20:41:12;-14.68;56.21
75838;SHT30;64480;52.040;113.502;2023-02-15T20:44:35;-14.65;56.60
75838;SHT30;64480;52.040;113.502;2023-02-15T20:47:40;-14.67;55.97
75838;SHT30;64480;52.040;113.502;2023-02-15T20:50:50;-14.72;56.24
75838;SHT30;64480;52.040;113.502;2023-02-15T20:53:56;-14.78;56.08
75838;SHT30;64480;52.040;113.502;2023-02-15T20:57:00;-14.81;56.68
75838;SHT30;64480;52.040;113.502;2023-02-15T21:00:21;-14.85;56.33
75838;SHT30;64480;52.040;113.502;2023-02-15T21:03:32;-14.91;56.26
75838;SHT30;64480;52.040;113.502;2023-02-15T21:06:36;-14.67;57.73
75838;SHT30;64480;52.040;113.502;2023-02-15T21:09:48;-14.65;56.32
75838;SHT30;64480;52.040;113.502;2023-02-15T21:16:20;-14.57;55.73
75838;SHT30;64480;52.040;113.502;2023-02-15T21:19:29;-14.56;55.96
75838;SHT30;64480;52.040;113.502;2023-02-15T21:22:37;-14.50;56.25
75838;SHT30;64480;52.040;113.502;2023-02-15T21:25:50;-14.40;56.16
75838;SHT30;64480;52.040;113.502;2023-02-15T21:28:53;-14.25;57.80
75838;SHT30;64480;52.040;113.502;2023-02-15T21:32:12;-14.16;56.67
75838;SHT30;64480;52.040;113.502;2023-02-15T21:35:18;-14.08;57.16
75838;SHT30;64480;52.040;113.502;2023-02-15T21:38:28;-13.91;57.17
75838;SHT30;64480;52.040;113.502;2023-02-15T21:41:34;-13.82;56.21
75838;SHT30;64480;52.040;113.502;2023-02-15T21:44:59;-13.46;59.16
75838;SHT30;64480;52.040;113.502;2023-02-15T21:48:26;-13.29;56.78
75838;SHT30;64480;52.040;113.502;2023-02-15T21:51:30;-13.14;57.02
75838;SHT30;64480;52.040;113.502;2023-02-15T21:54:53;-13.15;57.19
75838;SHT30;64480;52.040;113.502;2023-02-15T21:57:59;-13.08;56.26
75838;SHT30;64480;52.040;113.502;2023-02-15T22:01:26;-13.10;54.77
75838;SHT30;64480;52.040;113.502;2023-02-15T22:04:34;-13.18;55.66
75838;SHT30;64480;52.040;113.502;2023-02-15T22:07:43;-13.25;55.42
75838;SHT30;64480;52.040;113.502;2023-02-15T22:10:49;-13.16;55.53
75838;SHT30;64480;52.040;113.502;2023-02-15T22:13:52;-13.22;55.26
75838;SHT30;64480;52.040;113.502;2023-02-15T22:16:58;-13.28;54.56
75838;SHT30;64480;52.040;113.502;2023-02-15T22:20:15;-13.43;54.66
75838;SHT30;64480;52.040;113.502;2023-02-15T22:23:21;-13.59;54.61
75838;SHT30;64480;52.040;113.502;2023-02-15T22:26:26;-13.66;55.16
75838;SHT30;64480;52.040;113.502;2023-02-15T22:29:38;-13.78;55.80
75838;SHT30;64480;52.040;113.502;2023-02-15T22:32:46;-13.61;57.39
75838;SHT30;64480;52.040;113.502;2023-02-15T22:36:05;-13.46;57.49
75838;SHT30;64480;52.040;113.502;2023-02-15T22:39:10;-13.39;56.80